sensor_id;sensor_type;location;lat;lon;timestamp;temperature;humidity
55996;DHT22;75961;51.012;4.634;2024-01-30T00:00:24;9.90;87.90
55996;DHT22;75961;51.012;4.634;2024-01-30T00:02:50;9.90;87.60
55996;DHT22;75961;51.012;4.634;2024-01-30T00:05:16;10.00;87.60
55996;DHT22;75961;51.012;4.634;2024-01-30T00:07:41;10.00;87.40
55996;DHT22;75961;51.012;4.634;2024-01-30T00:10:07;10.10;87.40
55996;DHT22;75961;51.012;4.634;2024-01-30T00:12:33;10.10;86.60
55996;DHT22;75961;51.012;4.634;2024-01-30T00:14:59;10.30;85.60
55996;DHT22;75961;51.012;4.634;2024-01-30T00:17:25;10.10;85.80
55996;DHT22;75961;51.012;4.634;2024-01-30T00:19:51;10.10;86.50
55996;DHT22;75961;51.012;4.634;2024-01-30T00:22:17;10.30;86.00
55996;DHT22;75961;51.012;4.634;2024-01-30T00:24:43;10.40;85.40
55996;DHT22;75961;51.012;4.634;2024-01-30T00:27:09;10.40;85.20
55996;DHT22;75961;51.012;4.634;2024-01-30T00:29:34;10.30;85.30
55996;DHT22;75961;51.012;4.634;2024-01-30T00:32:00;10.30;85.50
55996;DHT22;75961;51.012;4.634;2024-01-30T00:34:26;10.50;85.00
55996;DHT22;75961;51.012;4.634;2024-01-30T00:36:52;10.60;84.30
55996;DHT22;75961;51.012;4.634;2024-01-30T00:39:17;10.40;84.60
55996;DHT22;75961;51.012;4.634;2024-01-30T00:41:45;10.30;85.40
55996;DHT22;75961;51.012;4.634;2024-01-30T00:44:11;10.40;85.10
55996;DHT22;75961;51.012;4.634;2024-01-30T00:46:36;10.20;85.90
55996;DHT22;75961;51.012;4.634;2024-01-30T00:49:02;10.20;86.20
55996;DHT22;75961;51.012;4.634;2024-01-30T00:51:28;10.30;85.70
55996;DHT22;75961;51.012;4.634;2024-01-30T00:53:55;10.30;86.20
55996;DHT22;75961;51.012;4.634;2024-01-30T00:56:21;10.40;85.30
55996;DHT22;75961;51.012;4.634;2024-01-30T00:58:46;10.40;84.90
55996;DHT22;75961;51.012;4.634;2024-01-30T01:01:12;10.50;84.70
55996;DHT22;75961;51.012;4.634;2024-01-30T01:03:38;10.50;84.70
55996;DHT22;75961;51.012;4.634;2024-01-30T01:06:06;10.60;84.30
55996;DHT22;75961;51.012;4.634;2024-01-30T01:08:32;10.70;83.70
55996;DHT22;75961;51.012;4.634;2024-01-30T01:10:57;10.70;83.80
55996;DHT22;75961;51.012;4.634;2024-01-30T01:13:23;10.90;83.10
55996;DHT22;75961;51.012;4.634;2024-01-30T01:15:49;10.80;82.90
55996;DHT22;75961;51.012;4.634;2024-01-30T01:18:14;10.70;83.70
55996;DHT22;75961;51.012;4.634;2024-01-30T01:20:40;10.60;83.80
55996;DHT22;75961;51.012;4.634;2024-01-30T01:23:06;10.60;84.10
55996;DHT22;75961;51.012;4.634;2024-01-30T01:25:31;10.50;84.50
55996;DHT22;75961;51.012;4.634;2024-01-30T01:27:57;10.50;84.40
55996;DHT22;75961;51.012;4.634;2024-01-30T01:30:23;10.50;84.70
55996;DHT22;75961;51.012;4.634;2024-01-30T01:32:49;10.50;84.90
55996;DHT22;75961;51.012;4.634;2024-01-30T01:35:25;10.40;84.80
55996;DHT22;75961;51.012;4.634;2024-01-30T01:37:51;10.40;84.80
55996;DHT22;75961;51.012;4.634;2024-01-30T01:40:23;10.40;84.50
55996;DHT22;75961;51.012;4.634;2024-01-30T01:42:50;10.40;85.10
55996;DHT22;75961;51.012;4.634;2024-01-30T01:45:18;10.40;84.90
55996;DHT22;75961;51.012;4.634;2024-01-30T01:47:44;10.40;85.40
55996;DHT22;75961;51.012;4.634;2024-01-30T01:50:13;10.50;85.10
55996;DHT22;75961;51.012;4.634;2024-01-30T01:52:40;10.60;84.30
55996;DHT22;75961;51.012;4.634;2024-01-30T01:55:07;10.70;83.00
55996;DHT22;75961;51.012;4.634;2024-01-30T01:57:34;10.50;84.00
55996;DHT22;75961;51.012;4.634;2024-01-30T02:00:01;10.30;84.90
55996;DHT22;75961;51.012;4.634;2024-01-30T02:02:30;10.20;85.40
55996;DHT22;75961;51.012;4.634;2024-01-30T02:04:57;10.20;85.70
55996;DHT22;75961;51.012;4.634;2024-01-30T02:07:24;10.20;85.40
55996;DHT22;75961;51.012;4.634;2024-01-30T02:09:50;10.10;86.40
55996;DHT22;75961;51.012;4.634;2024-01-30T02:12:15;10.10;86.30
55996;DHT22;75961;51.012;4.634;2024-01-30T02:14:45;10.20;86.10
55996;DHT22;75961;51.012;4.634;2024-01-30T02:17:12;10.20;86.00
55996;DHT22;75961;51.012;4.634;2024-01-30T02:19:38;10.20;85.00
55996;DHT22;75961;51.012;4.634;2024-01-30T02:22:04;10.10;86.10
55996;DHT22;75961;51.012;4.634;2024-01-30T02:24:30;10.20;86.60
55996;DHT22;75961;51.012;4.634;2024-01-30T02:26:55;10.10;87.20
55996;DHT22;75961;51.012;4.634;2024-01-30T02:29:21;10.00;86.50
55996;DHT22;75961;51.012;4.634;2024-01-30T02:31:47;9.90;87.00
55996;DHT22;75961;51.012;4.634;2024-01-30T02:34:13;9.80;87.80
55996;DHT22;75961;51.012;4.634;2024-01-30T02:36:42;9.80;88.00
55996;DHT22;75961;51.012;4.634;2024-01-30T02:39:08;9.70;88.30
55996;DHT22;75961;51.012;4.634;2024-01-30T02:41:34;9.80;88.00
55996;DHT22;75961;51.012;4.634;2024-01-30T02:43:59;9.90;87.70
55996;DHT22;75961;51.012;4.634;2024-01-30T02:46:25;9.80;88.60
55996;DHT22;75961;51.012;4.634;2024-01-30T02:48:51;9.80;88.30
55996;DHT22;75961;51.012;4.634;2024-01-30T02:51:17;9.80;88.70
55996;DHT22;75961;51.012;4.634;2024-01-30T02:53:42;9.80;88.90
55996;DHT22;75961;51.012;4.634;2024-01-30T02:56:08;9.80;89.70
55996;DHT22;75961;51.012;4.634;2024-01-30T02:58:36;9.70;89.80
55996;DHT22;75961;51.012;4.634;2024-01-30T03:01:02;9.90;89.70
55996;DHT22;75961;51.012;4.634;2024-01-30T03:03:28;10.00;89.10
55996;DHT22;75961;51.012;4.634;2024-01-30T03:05:54;10.10;88.90
55996;DHT22;75961;51.012;4.634;2024-01-30T03:08:19;10.10;89.10
55996;DHT22;75961;51.012;4.634;2024-01-30T03:10:45;10.10;88.60
55996;DHT22;75961;51.012;4.634;2024-01-30T03:13:11;10.00;88.80
55996;DHT22;75961;51.012;4.634;2024-01-30T03:15:36;10.10;88.80
55996;DHT22;75961;51.012;4.634;2024-01-30T03:18:03;10.20;88.80
55996;DHT22;75961;51.012;4.634;2024-01-30T03:20:31;10.10;89.10
55996;DHT22;75961;51.012;4.634;2024-01-30T03:22:59;10.20;89.30
55996;DHT22;75961;51.012;4.634;2024-01-30T03:25:25;10.10;89.50
55996;DHT22;75961;51.012;4.634;2024-01-30T03:27:51;10.20;89.60
55996;DHT22;75961;51.012;4.634;2024-01-30T03:30:17;10.30;89.00
55996;DHT22;75961;51.012;4.634;2024-01-30T03:32:43;10.40;88.60
55996;DHT22;75961;51.012;4.634;2024-01-30T03:35:09;10.60;88.20
55996;DHT22;75961;51.012;4.634;2024-01-30T03:37:35;10.60;87.40
55996;DHT22;75961;51.012;4.634;2024-01-30T03:40:02;10.70;87.60
55996;DHT22;75961;51.012;4.634;2024-01-30T03:42:28;10.70;87.30
55996;DHT22;75961;51.012;4.634;2024-01-30T03:44:54;10.80;87.00
55996;DHT22;75961;51.012;4.634;2024-01-30T03:47:21;10.90;85.70
55996;DHT22;75961;51.012;4.634;2024-01-30T03:49:47;10.90;86.20
55996;DHT22;75961;51.012;4.634;2024-01-30T03:52:12;10.90;86.40
55996;DHT22;75961;51.012;4.634;2024-01-30T03:54:38;10.80;86.50
55996;DHT22;75961;51.012;4.634;2024-01-30T03:57:04;10.90;86.20
55996;DHT22;75961;51.012;4.634;2024-01-30T03:59:30;11.00;86.00
55996;DHT22;75961;51.012;4.634;2024-01-30T04:01:56;10.90;86.10
55996;DHT22;75961;51.012;4.634;2024-01-30T04:04:22;10.90;85.60
55996;DHT22;75961;51.012;4.634;2024-01-30T04:06:48;10.90;86.00
55996;DHT22;75961;51.012;4.634;2024-01-30T04:09:14;11.10;85.20
55996;DHT22;75961;51.012;4.634;2024-01-30T04:11:40;11.00;85.40
55996;DHT22;75961;51.012;4.634;2024-01-30T04:14:07;11.00;85.20
55996;DHT22;75961;51.012;4.634;2024-01-30T04:16:33;11.10;85.10
55996;DHT22;75961;51.012;4.634;2024-01-30T04:18:58;11.20;84.80
55996;DHT22;75961;51.012;4.634;2024-01-30T04:21:24;11.10;84.90
55996;DHT22;75961;51.012;4.634;2024-01-30T04:23:51;11.20;84.50
55996;DHT22;75961;51.012;4.634;2024-01-30T04:26:16;11.00;85.00
55996;DHT22;75961;51.012;4.634;2024-01-30T04:28:44;11.10;85.10
55996;DHT22;75961;51.012;4.634;2024-01-30T04:31:10;11.00;85.20
55996;DHT22;75961;51.012;4.634;2024-01-30T04:33:36;10.90;85.90
55996;DHT22;75961;51.012;4.634;2024-01-30T04:36:02;10.90;85.70
55996;DHT22;75961;51.012;4.634;2024-01-30T04:38:28;10.90;85.70
55996;DHT22;75961;51.012;4.634;2024-01-30T04:40:54;10.90;85.70
55996;DHT22;75961;51.012;4.634;2024-01-30T04:43:20;10.90;85.80
55996;DHT22;75961;51.012;4.634;2024-01-30T04:45:45;11.00;85.20
55996;DHT22;75961;51.012;4.634;2024-01-30T04:48:11;10.90;85.80
55996;DHT22;75961;51.012;4.634;2024-01-30T04:50:37;10.90;86.80
55996;DHT22;75961;51.012;4.634;2024-01-30T04:53:03;10.90;86.30
55996;DHT22;75961;51.012;4.634;2024-01-30T04:55:28;11.10;85.40
55996;DHT22;75961;51.012;4.634;2024-01-30T04:57:54;11.10;85.10
55996;DHT22;75961;51.012;4.634;2024-01-30T05:00:20;11.10;84.90
55996;DHT22;75961;51.012;4.634;2024-01-30T05:02:45;11.20;84.50
55996;DHT22;75961;51.012;4.634;2024-01-30T05:05:11;11.10;85.10
55996;DHT22;75961;51.012;4.634;2024-01-30T05:07:38;11.00;85.60
55996;DHT22;75961;51.012;4.634;2024-01-30T05:10:04;10.90;85.80
55996;DHT22;75961;51.012;4.634;2024-01-30T05:12:30;11.00;85.30
55996;DHT22;75961;51.012;4.634;2024-01-30T05:14:55;11.10;84.90
55996;DHT22;75961;51.012;4.634;2024-01-30T05:17:21;11.10;85.00
55996;DHT22;75961;51.012;4.634;2024-01-30T05:19:47;11.10;84.80
55996;DHT22;75961;51.012;4.634;2024-01-30T05:22:12;11.10;85.00
55996;DHT22;75961;51.012;4.634;2024-01-30T05:24:41;10.70;86.10
55996;DHT22;75961;51.012;4.634;2024-01-30T05:27:08;10.70;86.80
55996;DHT22;75961;51.012;4.634;2024-01-30T05:29:34;10.80;86.60
55996;DHT22;75961;51.012;4.634;2024-01-30T05:31:59;10.90;85.90
55996;DHT22;75961;51.012;4.634;2024-01-30T05:34:25;10.90;85.50
55996;DHT22;75961;51.012;4.634;2024-01-30T05:36:51;11.00;85.20
55996;DHT22;75961;51.012;4.634;2024-01-30T05:39:16;10.90;85.60
55996;DHT22;75961;51.012;4.634;2024-01-30T05:41:42;11.00;85.50
55996;DHT22;75961;51.012;4.634;2024-01-30T05:44:08;10.90;85.50
55996;DHT22;75961;51.012;4.634;2024-01-30T05:46:35;10.90;85.80
55996;DHT22;75961;51.012;4.634;2024-01-30T05:49:01;10.90;85.90
55996;DHT22;75961;51.012;4.634;2024-01-30T05:51:26;10.80;86.30
55996;DHT22;75961;51.012;4.634;2024-01-30T05:53:53;10.70;86.60
55996;DHT22;75961;51.012;4.634;2024-01-30T05:56:19;10.70;86.70
55996;DHT22;75961;51.012;4.634;2024-01-30T05:58:45;10.60;86.70
55996;DHT22;75961;51.012;4.634;2024-01-30T06:01:11;10.70;86.70
55996;DHT22;75961;51.012;4.634;2024-01-30T06:03:37;10.80;86.50
55996;DHT22;75961;51.012;4.634;2024-01-30T06:06:02;10.80;86.00
55996;DHT22;75961;51.012;4.634;2024-01-30T06:08:28;10.90;85.60
55996;DHT22;75961;51.012;4.634;2024-01-30T06:10:54;10.90;85.90
55996;DHT22;75961;51.012;4.634;2024-01-30T06:13:20;10.90;86.30
55996;DHT22;75961;51.012;4.634;2024-01-30T06:15:46;11.00;85.40
55996;DHT22;75961;51.012;4.634;2024-01-30T06:18:11;11.10;85.60
55996;DHT22;75961;51.012;4.634;2024-01-30T06:20:37;11.00;85.30
55996;DHT22;75961;51.012;4.634;2024-01-30T06:23:03;10.90;85.80
55996;DHT22;75961;51.012;4.634;2024-01-30T06:25:28;10.90;86.30
55996;DHT22;75961;51.012;4.634;2024-01-30T06:27:54;10.90;86.20
55996;DHT22;75961;51.012;4.634;2024-01-30T06:30:20;11.00;85.80
55996;DHT22;75961;51.012;4.634;2024-01-30T06:32:46;11.00;85.90
55996;DHT22;75961;51.012;4.634;2024-01-30T06:35:11;11.00;85.70
55996;DHT22;75961;51.012;4.634;2024-01-30T06:37:38;11.00;86.00
55996;DHT22;75961;51.012;4.634;2024-01-30T06:40:04;11.10;85.90
55996;DHT22;75961;51.012;4.634;2024-01-30T06:42:30;11.10;86.40
55996;DHT22;75961;51.012;4.634;2024-01-30T06:44:56;11.00;86.10
55996;DHT22;75961;51.012;4.634;2024-01-30T06:47:22;11.00;86.00
55996;DHT22;75961;51.012;4.634;2024-01-30T06:49:47;11.00;86.20
55996;DHT22;75961;51.012;4.634;2024-01-30T06:52:13;11.00;86.10
55996;DHT22;75961;51.012;4.634;2024-01-30T06:54:39;11.00;86.30
55996;DHT22;75961;51.012;4.634;2024-01-30T06:57:05;11.10;85.80
55996;DHT22;75961;51.012;4.634;2024-01-30T06:59:37;11.20;85.50
55996;DHT22;75961;51.012;4.634;2024-01-30T07:02:03;11.00;85.90
55996;DHT22;75961;51.012;4.634;2024-01-30T07:04:28;11.20;85.50
55996;DHT22;75961;51.012;4.634;2024-01-30T07:06:54;11.30;85.10
55996;DHT22;75961;51.012;4.634;2024-01-30T07:09:20;11.20;85.50
55996;DHT22;75961;51.012;4.634;2024-01-30T07:11:45;11.00;86.20
55996;DHT22;75961;51.012;4.634;2024-01-30T07:14:11;11.00;86.40
55996;DHT22;75961;51.012;4.634;2024-01-30T07:16:37;11.10;85.60
55996;DHT22;75961;51.012;4.634;2024-01-30T07:19:02;11.20;85.70
55996;DHT22;75961;51.012;4.634;2024-01-30T07:21:28;11.20;85.70
55996;DHT22;75961;51.012;4.634;2024-01-30T07:23:54;11.20;85.20
55996;DHT22;75961;51.012;4.634;2024-01-30T07:26:20;11.50;84.60
55996;DHT22;75961;51.012;4.634;2024-01-30T07:28:46;11.50;84.10
55996;DHT22;75961;51.012;4.634;2024-01-30T07:31:12;11.60;84.20
55996;DHT22;75961;51.012;4.634;2024-01-30T07:33:37;11.50;84.40
55996;DHT22;75961;51.012;4.634;2024-01-30T07:36:03;11.50;84.50
55996;DHT22;75961;51.012;4.634;2024-01-30T07:38:31;11.60;84.20
55996;DHT22;75961;51.012;4.634;2024-01-30T07:40:57;11.60;83.90
55996;DHT22;75961;51.012;4.634;2024-01-30T07:43:23;11.60;84.30
55996;DHT22;75961;51.012;4.634;2024-01-30T07:45:49;11.60;84.30
55996;DHT22;75961;51.012;4.634;2024-01-30T07:48:15;11.70;84.20
55996;DHT22;75961;51.012;4.634;2024-01-30T07:50:41;11.70;84.10
55996;DHT22;75961;51.012;4.634;2024-01-30T07:53:06;11.80;83.60
55996;DHT22;75961;51.012;4.634;2024-01-30T07:55:32;11.90;83.70
55996;DHT22;75961;51.012;4.634;2024-01-30T07:57:58;12.00;82.90
55996;DHT22;75961;51.012;4.634;2024-01-30T08:00:27;12.00;82.80
55996;DHT22;75961;51.012;4.634;2024-01-30T08:02:54;12.10;82.80
55996;DHT22;75961;51.012;4.634;2024-01-30T08:05:22;12.20;82.20
55996;DHT22;75961;51.012;4.634;2024-01-30T08:07:49;12.20;82.10
55996;DHT22;75961;51.012;4.634;2024-01-30T08:10:15;12.30;82.10
55996;DHT22;75961;51.012;4.634;2024-01-30T08:12:41;12.20;82.50
55996;DHT22;75961;51.012;4.634;2024-01-30T08:15:07;12.10;83.00
55996;DHT22;75961;51.012;4.634;2024-01-30T08:17:33;12.10;83.10
55996;DHT22;75961;51.012;4.634;2024-01-30T08:19:59;12.10;83.50
55996;DHT22;75961;51.012;4.634;2024-01-30T08:22:25;12.20;83.30
55996;DHT22;75961;51.012;4.634;2024-01-30T08:24:51;12.40;82.80
55996;DHT22;75961;51.012;4.634;2024-01-30T08:27:16;12.40;82.70
55996;DHT22;75961;51.012;4.634;2024-01-30T08:29:42;12.30;83.30
55996;DHT22;75961;51.012;4.634;2024-01-30T08:32:08;12.50;82.90
55996;DHT22;75961;51.012;4.634;2024-01-30T08:34:34;12.40;83.20
55996;DHT22;75961;51.012;4.634;2024-01-30T08:37:00;12.50;83.30
55996;DHT22;75961;51.012;4.634;2024-01-30T08:39:25;12.40;83.70
55996;DHT22;75961;51.012;4.634;2024-01-30T08:41:51;12.50;83.40
55996;DHT22;75961;51.012;4.634;2024-01-30T08:44:17;12.70;82.70
55996;DHT22;75961;51.012;4.634;2024-01-30T08:46:46;12.70;82.60
55996;DHT22;75961;51.012;4.634;2024-01-30T08:49:13;12.80;82.10
55996;DHT22;75961;51.012;4.634;2024-01-30T08:51:39;12.90;81.70
55996;DHT22;75961;51.012;4.634;2024-01-30T08:54:05;12.90;81.40
55996;DHT22;75961;51.012;4.634;2024-01-30T08:56:31;12.90;81.50
55996;DHT22;75961;51.012;4.634;2024-01-30T08:58:56;12.90;81.60
55996;DHT22;75961;51.012;4.634;2024-01-30T09:01:22;13.10;81.00
55996;DHT22;75961;51.012;4.634;2024-01-30T09:03:48;12.90;81.30
55996;DHT22;75961;51.012;4.634;2024-01-30T09:06:13;12.90;82.10
55996;DHT22;75961;51.012;4.634;2024-01-30T09:08:39;12.90;81.90
55996;DHT22;75961;51.012;4.634;2024-01-30T09:11:09;13.00;81.20
55996;DHT22;75961;51.012;4.634;2024-01-30T09:13:36;12.90;82.20
55996;DHT22;75961;51.012;4.634;2024-01-30T09:16:01;12.70;82.90
55996;DHT22;75961;51.012;4.634;2024-01-30T09:18:27;12.60;83.20
55996;DHT22;75961;51.012;4.634;2024-01-30T09:20:52;12.50;84.10
55996;DHT22;75961;51.012;4.634;2024-01-30T09:23:18;12.70;83.60
55996;DHT22;75961;51.012;4.634;2024-01-30T09:25:45;12.70;83.50
55996;DHT22;75961;51.012;4.634;2024-01-30T09:28:10;12.80;83.00
55996;DHT22;75961;51.012;4.634;2024-01-30T09:30:36;12.60;83.70
55996;DHT22;75961;51.012;4.634;2024-01-30T09:33:02;12.80;83.90
55996;DHT22;75961;51.012;4.634;2024-01-30T09:35:28;12.90;82.70
55996;DHT22;75961;51.012;4.634;2024-01-30T09:37:55;12.90;82.20
55996;DHT22;75961;51.012;4.634;2024-01-30T09:40:22;12.80;82.70
55996;DHT22;75961;51.012;4.634;2024-01-30T09:42:50;12.80;83.00
55996;DHT22;75961;51.012;4.634;2024-01-30T09:45:19;12.70;83.60
55996;DHT22;75961;51.012;4.634;2024-01-30T09:47:46;12.70;84.00
55996;DHT22;75961;51.012;4.634;2024-01-30T09:50:15;12.60;84.40
55996;DHT22;75961;51.012;4.634;2024-01-30T09:52:42;12.70;83.90
55996;DHT22;75961;51.012;4.634;2024-01-30T09:55:09;12.70;84.20
55996;DHT22;75961;51.012;4.634;2024-01-30T09:57:35;12.70;84.70
55996;DHT22;75961;51.012;4.634;2024-01-30T10:00:02;12.80;84.30
55996;DHT22;75961;51.012;4.634;2024-01-30T10:02:28;13.00;83.40
55996;DHT22;75961;51.012;4.634;2024-01-30T10:04:54;13.00;83.30
55996;DHT22;75961;51.012;4.634;2024-01-30T10:07:20;12.90;83.80
55996;DHT22;75961;51.012;4.634;2024-01-30T10:09:46;12.80;84.20
55996;DHT22;75961;51.012;4.634;2024-01-30T10:12:12;12.70;84.60
55996;DHT22;75961;51.012;4.634;2024-01-30T10:14:42;12.80;84.60
55996;DHT22;75961;51.012;4.634;2024-01-30T10:17:17;12.80;84.50
55996;DHT22;75961;51.012;4.634;2024-01-30T10:19:43;12.80;84.90
55996;DHT22;75961;51.012;4.634;2024-01-30T10:22:09;13.00;84.00
55996;DHT22;75961;51.012;4.634;2024-01-30T10:24:35;12.90;84.20
55996;DHT22;75961;51.012;4.634;2024-01-30T10:27:01;12.90;83.90
55996;DHT22;75961;51.012;4.634;2024-01-30T10:29:27;12.90;84.00
55996;DHT22;75961;51.012;4.634;2024-01-30T10:32:03;12.90;84.70
55996;DHT22;75961;51.012;4.634;2024-01-30T10:34:30;13.20;83.20
55996;DHT22;75961;51.012;4.634;2024-01-30T10:37:11;13.20;82.80
55996;DHT22;75961;51.012;4.634;2024-01-30T10:39:44;13.10;83.60
55996;DHT22;75961;51.012;4.634;2024-01-30T10:42:15;13.00;82.60
55996;DHT22;75961;51.012;4.634;2024-01-30T10:47:26;12.80;84.50
55996;DHT22;75961;51.012;4.634;2024-01-30T10:49:52;12.60;85.50
55996;DHT22;75961;51.012;4.634;2024-01-30T10:52:20;12.60;84.60
55996;DHT22;75961;51.012;4.634;2024-01-30T10:54:46;12.40;84.80
55996;DHT22;75961;51.012;4.634;2024-01-30T10:57:13;12.60;84.80
55996;DHT22;75961;51.012;4.634;2024-01-30T10:59:41;12.60;84.40
55996;DHT22;75961;51.012;4.634;2024-01-30T11:02:09;12.60;84.10
55996;DHT22;75961;51.012;4.634;2024-01-30T11:04:37;12.60;84.70
55996;DHT22;75961;51.012;4.634;2024-01-30T11:07:03;12.80;83.70
55996;DHT22;75961;51.012;4.634;2024-01-30T11:09:29;13.20;81.60
55996;DHT22;75961;51.012;4.634;2024-01-30T11:11:59;13.30;80.90
55996;DHT22;75961;51.012;4.634;2024-01-30T11:14:30;13.00;82.00
55996;DHT22;75961;51.012;4.634;2024-01-30T11:16:59;13.00;81.50
55996;DHT22;75961;51.012;4.634;2024-01-30T11:19:26;13.00;80.80
55996;DHT22;75961;51.012;4.634;2024-01-30T11:21:55;13.00;80.20
55996;DHT22;75961;51.012;4.634;2024-01-30T11:24:22;12.90;80.50
55996;DHT22;75961;51.012;4.634;2024-01-30T11:26:58;12.80;81.30
55996;DHT22;75961;51.012;4.634;2024-01-30T11:29:28;12.90;81.50
55996;DHT22;75961;51.012;4.634;2024-01-30T11:31:54;12.80;81.00
55996;DHT22;75961;51.012;4.634;2024-01-30T11:34:21;12.70;79.10
55996;DHT22;75961;51.012;4.634;2024-01-30T11:36:58;12.40;78.70
55996;DHT22;75961;51.012;4.634;2024-01-30T11:39:25;12.40;77.50
55996;DHT22;75961;51.012;4.634;2024-01-30T11:41:54;12.30;76.90
55996;DHT22;75961;51.012;4.634;2024-01-30T11:44:21;12.20;76.70
55996;DHT22;75961;51.012;4.634;2024-01-30T11:46:51;12.40;75.20
55996;DHT22;75961;51.012;4.634;2024-01-30T11:49:17;12.50;75.10
55996;DHT22;75961;51.012;4.634;2024-01-30T11:51:45;12.50;74.30
55996;DHT22;75961;51.012;4.634;2024-01-30T11:54:11;12.50;72.60
55996;DHT22;75961;51.012;4.634;2024-01-30T11:56:37;12.60;72.70
55996;DHT22;75961;51.012;4.634;2024-01-30T11:59:04;12.60;72.00
55996;DHT22;75961;51.012;4.634;2024-01-30T12:01:31;12.50;72.10
55996;DHT22;75961;51.012;4.634;2024-01-30T12:03:59;12.60;71.10
55996;DHT22;75961;51.012;4.634;2024-01-30T12:06:24;12.40;70.00
55996;DHT22;75961;51.012;4.634;2024-01-30T12:09:00;12.50;69.70
55996;DHT22;75961;51.012;4.634;2024-01-30T12:11:29;12.50;69.70
55996;DHT22;75961;51.012;4.634;2024-01-30T12:13:55;12.30;68.60
55996;DHT22;75961;51.012;4.634;2024-01-30T12:16:22;12.20;69.20
55996;DHT22;75961;51.012;4.634;2024-01-30T12:18:48;12.20;70.20
55996;DHT22;75961;51.012;4.634;2024-01-30T12:21:16;12.00;69.50
55996;DHT22;75961;51.012;4.634;2024-01-30T12:23:42;12.10;70.70
55996;DHT22;75961;51.012;4.634;2024-01-30T12:26:08;12.10;69.40
55996;DHT22;75961;51.012;4.634;2024-01-30T12:28:35;12.00;70.20
55996;DHT22;75961;51.012;4.634;2024-01-30T12:31:03;12.10;70.90
55996;DHT22;75961;51.012;4.634;2024-01-30T12:33:30;12.10;71.20
55996;DHT22;75961;51.012;4.634;2024-01-30T12:35:56;12.10;69.80
55996;DHT22;75961;51.012;4.634;2024-01-30T12:38:23;12.00;71.20
55996;DHT22;75961;51.012;4.634;2024-01-30T12:40:53;12.00;71.60
55996;DHT22;75961;51.012;4.634;2024-01-30T12:43:19;12.00;71.40
55996;DHT22;75961;51.012;4.634;2024-01-30T12:45:45;12.10;71.80
55996;DHT22;75961;51.012;4.634;2024-01-30T12:48:12;12.00;71.30
55996;DHT22;75961;51.012;4.634;2024-01-30T12:50:38;12.10;71.10
55996;DHT22;75961;51.012;4.634;2024-01-30T12:53:03;12.40;69.20
55996;DHT22;75961;51.012;4.634;2024-01-30T12:55:30;12.60;68.90
55996;DHT22;75961;51.012;4.634;2024-01-30T12:57:56;12.50;68.60
55996;DHT22;75961;51.012;4.634;2024-01-30T13:00:22;12.60;69.50
55996;DHT22;75961;51.012;4.634;2024-01-30T13:02:48;12.50;69.20
55996;DHT22;75961;51.012;4.634;2024-01-30T13:05:14;12.40;69.50
55996;DHT22;75961;51.012;4.634;2024-01-30T13:07:40;12.20;68.00
55996;DHT22;75961;51.012;4.634;2024-01-30T13:10:06;11.80;70.60
55996;DHT22;75961;51.012;4.634;2024-01-30T13:12:32;11.60;70.30
55996;DHT22;75961;51.012;4.634;2024-01-30T13:14:59;11.60;71.30
55996;DHT22;75961;51.012;4.634;2024-01-30T13:17:26;11.50;71.20
55996;DHT22;75961;51.012;4.634;2024-01-30T13:19:52;11.40;71.20
55996;DHT22;75961;51.012;4.634;2024-01-30T13:22:19;11.50;70.20
55996;DHT22;75961;51.012;4.634;2024-01-30T13:24:47;11.80;69.20
55996;DHT22;75961;51.012;4.634;2024-01-30T13:27:13;12.20;67.80
55996;DHT22;75961;51.012;4.634;2024-01-30T13:29:39;12.70;65.30
55996;DHT22;75961;51.012;4.634;2024-01-30T13:32:05;13.00;64.10
55996;DHT22;75961;51.012;4.634;2024-01-30T13:34:31;13.40;64.20
55996;DHT22;75961;51.012;4.634;2024-01-30T13:36:57;13.50;62.60
55996;DHT22;75961;51.012;4.634;2024-01-30T13:39:22;13.40;61.50
55996;DHT22;75961;51.012;4.634;2024-01-30T13:41:49;13.30;61.70
55996;DHT22;75961;51.012;4.634;2024-01-30T13:44:15;13.40;62.40
55996;DHT22;75961;51.012;4.634;2024-01-30T13:46:42;13.50;62.70
55996;DHT22;75961;51.012;4.634;2024-01-30T13:49:08;13.40;62.60
55996;DHT22;75961;51.012;4.634;2024-01-30T13:51:34;12.70;63.80
55996;DHT22;75961;51.012;4.634;2024-01-30T13:53:59;12.30;67.60
55996;DHT22;75961;51.012;4.634;2024-01-30T13:56:27;11.90;70.00
55996;DHT22;75961;51.012;4.634;2024-01-30T13:58:54;11.70;70.70
55996;DHT22;75961;51.012;4.634;2024-01-30T14:01:22;11.50;72.00
55996;DHT22;75961;51.012;4.634;2024-01-30T14:03:47;11.40;73.40
55996;DHT22;75961;51.012;4.634;2024-01-30T14:06:13;11.30;73.90
55996;DHT22;75961;51.012;4.634;2024-01-30T14:08:39;11.20;73.90
55996;DHT22;75961;51.012;4.634;2024-01-30T14:11:05;11.20;74.00
55996;DHT22;75961;51.012;4.634;2024-01-30T14:13:31;11.00;74.50
55996;DHT22;75961;51.012;4.634;2024-01-30T14:15:58;10.80;75.30
55996;DHT22;75961;51.012;4.634;2024-01-30T14:18:24;10.80;76.40
55996;DHT22;75961;51.012;4.634;2024-01-30T14:20:51;10.80;77.10
55996;DHT22;75961;51.012;4.634;2024-01-30T14:23:17;11.00;75.90
55996;DHT22;75961;51.012;4.634;2024-01-30T14:25:43;11.10;76.00
55996;DHT22;75961;51.012;4.634;2024-01-30T14:28:08;11.10;75.50
55996;DHT22;75961;51.012;4.634;2024-01-30T14:30:34;11.20;75.90
55996;DHT22;75961;51.012;4.634;2024-01-30T14:33:01;10.80;76.50
55996;DHT22;75961;51.012;4.634;2024-01-30T14:35:26;11.00;77.10
55996;DHT22;75961;51.012;4.634;2024-01-30T14:37:52;11.40;75.50
55996;DHT22;75961;51.012;4.634;2024-01-30T14:40:19;11.20;75.80
55996;DHT22;75961;51.012;4.634;2024-01-30T14:42:45;10.90;76.80
55996;DHT22;75961;51.012;4.634;2024-01-30T14:45:11;10.80;77.30
55996;DHT22;75961;51.012;4.634;2024-01-30T14:47:37;10.60;78.40
55996;DHT22;75961;51.012;4.634;2024-01-30T14:50:03;10.80;77.90
55996;DHT22;75961;51.012;4.634;2024-01-30T14:52:31;10.60;78.90
55996;DHT22;75961;51.012;4.634;2024-01-30T14:54:57;10.50;79.70
55996;DHT22;75961;51.012;4.634;2024-01-30T14:57:24;10.60;79.80
55996;DHT22;75961;51.012;4.634;2024-01-30T14:59:50;10.50;79.40
55996;DHT22;75961;51.012;4.634;2024-01-30T15:02:16;10.40;79.60
55996;DHT22;75961;51.012;4.634;2024-01-30T15:04:41;10.30;80.10
55996;DHT22;75961;51.012;4.634;2024-01-30T15:07:07;10.40;79.50
55996;DHT22;75961;51.012;4.634;2024-01-30T15:09:33;10.30;80.30
55996;DHT22;75961;51.012;4.634;2024-01-30T15:11:59;10.30;79.70
55996;DHT22;75961;51.012;4.634;2024-01-30T15:14:25;10.40;79.40
55996;DHT22;75961;51.012;4.634;2024-01-30T15:16:50;10.40;78.30
55996;DHT22;75961;51.012;4.634;2024-01-30T15:19:16;10.50;78.60
55996;DHT22;75961;51.012;4.634;2024-01-30T15:21:42;10.40;78.50
55996;DHT22;75961;51.012;4.634;2024-01-30T15:24:07;10.30;78.30
55996;DHT22;75961;51.012;4.634;2024-01-30T15:26:33;10.20;79.50
55996;DHT22;75961;51.012;4.634;2024-01-30T15:28:59;10.30;77.40